Time;durP1;ratioP1;P1;durP2;ratioP2;P2;SDS_P1;SDS_P2;PMS_P1;PMS_P2;Temp;Humidity;BMP_temperature;BMP_pressure;BME280_temperature;BME280_humidity;BME280_pressure;Samples;Min_cycle;Max_cycle;Signal;HPM_P1;HPM_P2
2023/03/27 00:00:45;;;;;;;11.43;1.70;;;5.70;48.70;;;;;;5068387;28;20040;-63
2023/03/27 00:03:13;;;;;;;11.13;1.42;;;5.60;45.30;;;;;;5052427;28;20095;-62
2023/03/27 00:05:39;;;;;;;7.35;1.40;;;5.60;37.80;;;;;;5053154;28;20139;-63
2023/03/27 00:08:08;;;;;;;13.55;1.60;;;5.60;40.80;;;;;;5028219;28;20052;-62
2023/03/27 00:10:34;;;;;;;9.43;1.90;;;5.60;42.90;;;;;;5069083;28;20494;-62
2023/03/27 00:13:02;;;;;;;8.15;1.55;;;5.60;46.00;;;;;;5064578;28;20052;-62
2023/03/27 00:15:32;;;;;;;6.75;1.40;;;5.60;46.80;;;;;;5048047;28;20406;-62
2023/03/27 00:18:02;;;;;;;16.23;2.05;;;5.60;43.70;;;;;;5046955;28;20044;-62
2023/03/27 00:20:30;;;;;;;11.32;1.75;;;5.60;43.50;;;;;;5059536;28;20452;-62
2023/03/27 00:22:56;;;;;;;10.60;1.70;;;5.60;43.70;;;;;;5051105;28;20406;-62
2023/03/27 00:25:25;;;;;;;7.85;1.15;;;5.70;47.50;;;;;;5070174;28;20029;-62
2023/03/27 00:27:52;;;;;;;12.23;2.03;;;5.60;43.70;;;;;;5069934;28;20040;-62
2023/03/27 00:30:19;;;;;;;18.15;2.75;;;5.50;40.10;;;;;;5050918;28;20048;-63
2023/03/27 00:32:45;;;;;;;16.50;1.95;;;5.50;40.60;;;;;;5068161;28;20040;-62
2023/03/27 00:35:12;;;;;;;10.55;1.48;;;5.40;41.50;;;;;;5065463;28;20073;-62
2023/03/27 00:37:38;;;;;;;6.75;1.20;;;5.30;38.20;;;;;;5059419;28;20079;-62
2023/03/27 00:40:10;;;;;;;7.47;1.45;;;5.30;42.60;;;;;;5050583;28;20197;-63
2023/03/27 00:42:35;;;;;;;14.63;1.90;;;5.30;43.20;;;;;;5069140;28;20052;-62
2023/03/27 00:45:01;;;;;;;8.55;2.03;;;5.20;72.00;;;;;;5034556;28;20062;-62
2023/03/27 00:47:34;;;;;;;6.60;1.48;;;5.00;74.70;;;;;;5068462;28;20135;-62
2023/03/27 00:50:05;;;;;;;12.25;1.85;;;4.80;79.80;;;;;;5069227;28;20056;-62
2023/03/27 00:52:32;;;;;;;12.43;1.83;;;4.70;85.50;;;;;;5055087;28;20066;-62
2023/03/27 00:55:01;;;;;;;8.90;1.63;;;4.60;88.10;;;;;;5051846;28;20068;-62
2023/03/27 00:57:28;;;;;;;9.23;1.10;;;4.60;82.10;;;;;;5050814;28;20040;-62
2023/03/27 00:59:59;;;;;;;8.63;1.90;;;4.70;76.60;;;;;;5050893;28;20041;-62
2023/03/27 01:02:26;;;;;;;6.93;1.33;;;4.80;72.70;;;;;;5033559;28;20548;-62
2023/03/27 01:04:53;;;;;;;8.82;2.00;;;4.80;73.20;;;;;;5068478;28;20066;-62
2023/03/27 01:07:20;;;;;;;9.05;1.75;;;4.70;65.50;;;;;;5069126;28;20043;-62
2023/03/27 01:09:46;;;;;;;13.63;1.42;;;4.70;64.60;;;;;;5067657;28;20102;-62
2023/03/27 01:12:30;;;;;;;9.15;1.50;;;4.80;68.70;;;;;;5069198;28;20076;-62
2023/03/27 01:15:08;;;;;;;12.20;1.75;;;4.80;66.80;;;;;;5068344;28;20454;-62
2023/03/27 01:17:56;;;;;;;8.73;1.27;;;4.70;57.20;;;;;;5068105;28;20422;-63
2023/03/27 01:20:51;;;;;;;12.00;1.50;;;4.80;51.90;;;;;;5068534;28;20410;-63
2023/03/27 01:23:48;;;;;;;9.10;2.08;;;4.80;54.70;;;;;;5054841;28;20050;-62
2023/03/27 01:26:44;;;;;;;12.43;1.55;;;4.90;57.30;;;;;;5068879;28;20091;-62
2023/03/27 01:29:21;;;;;;;6.97;1.40;;;4.90;57.00;;;;;;5068321;28;20072;-62
2023/03/27 01:31:58;;;;;;;12.77;1.90;;;5.00;51.20;;;;;;5065806;28;20049;-62
2023/03/27 01:34:59;;;;;;;13.27;1.70;;;5.00;50.40;;;;;;5068494;28;20049;-62
2023/03/27 01:37:55;;;;;;;13.48;1.85;;;5.00;47.80;;;;;;5068201;28;20083;-62
2023/03/27 01:40:45;;;;;;;10.90;1.67;;;5.10;53.90;;;;;;5046576;28;20531;-62
2023/03/27 01:43:41;;;;;;;10.30;2.17;;;5.00;56.50;;;;;;5068112;28;20581;-62
2023/03/27 01:46:21;;;;;;;8.77;1.73;;;4.90;56.20;;;;;;5032095;28;20060;-62
2023/03/27 01:49:03;;;;;;;8.15;1.40;;;4.80;49.10;;;;;;5035751;28;20424;-62
2023/03/27 01:52:00;;;;;;;17.73;3.63;;;4.80;45.60;;;;;;5068037;28;20090;-62
2023/03/27 01:54:33;;;;;;;9.27;1.40;;;4.70;40.80;;;;;;5045944;28;20080;-62
2023/03/27 01:57:03;;;;;;;7.15;1.15;;;4.70;43.50;;;;;;5065676;28;20166;-62
2023/03/27 01:59:33;;;;;;;6.32;1.10;;;4.70;40.50;;;;;;5068349;28;20052;-62
2023/03/27 02:02:01;;;;;;;;;;;4.70;42.30;;;;;;5067176;28;20051;-62
2023/03/27 02:04:37;;;;;;;8.35;1.20;;;4.70;43.30;;;;;;5068087;28;19930;-62
2023/03/27 02:07:11;;;;;;;11.38;1.58;;;4.70;43.30;;;;;;5067355;28;20113;-62
2023/03/27 02:09:46;;;;;;;8.65;1.73;;;4.80;41.50;;;;;;5049604;28;20045;-62
2023/03/27 02:12:18;;;;;;;9.80;1.35;;;4.80;43.90;;;;;;5067703;28;20041;-62
2023/03/27 02:14:53;;;;;;;13.73;2.00;;;4.80;43.50;;;;;;5053004;28;20133;-62
2023/03/27 02:17:24;;;;;;;8.52;1.90;;;5.00;41.60;;;;;;5067901;28;20123;-62
2023/03/27 02:20:08;;;;;;;9.57;2.30;;;5.00;52.70;;;;;;5066568;28;20044;-62
2023/03/27 02:22:34;;;;;;;12.68;2.72;;;4.80;63.70;;;;;;5048939;28;20135;-62
2023/03/27 02:25:00;;;;;;;9.93;2.15;;;4.60;73.10;;;;;;5067031;28;20127;-63
2023/03/27 02:27:29;;;;;;;9.25;2.35;;;4.20;75.90;;;;;;5067368;28;20036;-62
2023/03/27 02:30:15;;;;;;;10.73;1.23;;;4.00;81.60;;;;;;5049427;28;20509;-62
2023/03/27 02:33:15;;;;;;;7.95;1.27;;;3.70;91.30;;;;;;5066355;28;20089;-62
2023/03/27 02:35:57;;;;;;;3.85;1.02;;;3.50;81.50;;;;;;5058152;28;20048;-62
2023/03/27 02:38:57;;;;;;;3.22;1.00;;;3.50;81.60;;;;;;5067286;28;20107;-62
2023/03/27 02:41:31;;;;;;;6.07;1.20;;;3.40;74.30;;;;;;5066315;28;20043;-62
2023/03/27 02:44:09;;;;;;;7.55;1.33;;;3.40;68.00;;;;;;5048908;28;20057;-62
2023/03/27 02:46:52;;;;;;;4.65;0.93;;;3.50;67.00;;;;;;5067082;28;20044;-62
2023/03/27 02:49:31;;;;;;;8.57;1.60;;;3.50;64.80;;;;;;5066110;28;20139;-63
2023/03/27 02:52:05;;;;;;;9.10;1.75;;;3.50;66.00;;;;;;5059059;28;20073;-62
2023/03/27 02:54:42;;;;;;;6.63;1.48;;;3.60;63.40;;;;;;5058563;28;20094;-62
2023/03/27 02:57:14;;;;;;;9.20;1.75;;;3.60;59.00;;;;;;5066364;28;20119;-62
2023/03/27 02:59:52;;;;;;;8.60;1.20;;;3.60;59.70;;;;;;5066289;28;20051;-63
2023/03/27 03:02:28;;;;;;;4.88;1.25;;;3.70;59.30;;;;;;5065824;28;20495;-62
2023/03/27 03:05:04;;;;;;;8.50;1.98;;;3.70;59.30;;;;;;5048928;28;20060;-62
2023/03/27 03:07:33;;;;;;;8.27;1.42;;;3.70;59.00;;;;;;5062549;28;20039;-62
2023/03/27 03:10:00;;;;;;;6.50;1.90;;;3.70;60.20;;;;;;5047880;28;20569;-62
2023/03/27 03:12:26;;;;;;;15.57;2.13;;;3.70;60.50;;;;;;5067024;28;20055;-62
2023/03/27 03:14:52;;;;;;;12.30;1.77;;;3.80;61.70;;;;;;5066107;28;20154;-62
2023/03/27 03:17:17;;;;;;;14.95;2.30;;;3.80;63.60;;;;;;5048859;28;20040;-62
2023/03/27 03:19:43;;;;;;;9.20;1.80;;;3.80;65.30;;;;;;5066239;28;20367;-62
2023/03/27 03:22:10;;;;;;;6.20;2.10;;;3.70;66.20;;;;;;5066621;28;20123;-62
2023/03/27 03:24:36;;;;;;;10.70;2.20;;;3.70;71.30;;;;;;5048034;28;20049;-62
2023/03/27 03:27:03;;;;;;;13.63;2.80;;;3.60;75.70;;;;;;5066426;28;20143;-62
2023/03/27 03:29:34;;;;;;;12.38;2.92;;;3.60;82.60;;;;;;5066129;28;20410;-62
2023/03/27 03:32:00;;;;;;;7.03;1.98;;;3.50;84.10;;;;;;5065628;28;20052;-62
2023/03/27 03:34:26;;;;;;;15.48;2.17;;;3.60;84.50;;;;;;5070407;28;20127;-62
2023/03/27 03:36:53;;;;;;;10.60;2.45;;;3.60;84.30;;;;;;5059931;28;20047;-63
2023/03/27 03:39:20;;;;;;;15.25;2.38;;;3.60;85.10;;;;;;5052618;28;20070;-62
2023/03/27 03:41:46;;;;;;;12.43;2.42;;;3.60;85.00;;;;;;5070096;28;20098;-62
2023/03/27 03:44:12;;;;;;;10.15;1.90;;;3.50;83.10;;;;;;5065578;28;20132;-62
2023/03/27 03:46:38;;;;;;;8.85;1.67;;;3.50;81.00;;;;;;5039240;28;20184;-62
2023/03/27 03:49:05;;;;;;;13.45;2.17;;;3.50;73.10;;;;;;5062464;28;20053;-62
2023/03/27 03:51:31;;;;;;;10.60;2.08;;;3.60;67.70;;;;;;5053429;28;20044;-62
2023/03/27 03:53:57;;;;;;;10.77;1.63;;;3.70;65.40;;;;;;5062994;28;20055;-62
2023/03/27 03:56:23;;;;;;;11.43;1.83;;;3.80;68.90;;;;;;5051109;28;20053;-62
2023/03/27 03:58:52;;;;;;;15.20;1.80;;;3.80;70.70;;;;;;5068378;28;20036;-62
2023/03/27 04:01:19;;;;;;;15.55;1.75;;;3.90;69.50;;;;;;5052028;28;20490;-62
2023/03/27 04:03:46;;;;;;;11.65;2.30;;;3.80;72.10;;;;;;5060994;28;20452;-62
2023/03/27 04:06:12;;;;;;;16.58;2.22;;;3.70;74.80;;;;;;5051705;28;20059;-62
2023/03/27 04:08:38;;;;;;;14.98;2.58;;;3.70;80.70;;;;;;5069793;28;20040;-62
2023/03/27 04:11:04;;;;;;;20.63;3.20;;;3.50;85.70;;;;;;5066052;28;20037;-62
2023/03/27 04:13:30;;;;;;;10.80;3.08;;;3.40;90.00;;;;;;5054866;28;20041;-62
2023/03/27 04:16:00;;;;;;;16.42;3.97;;;3.30;92.20;;;;;;5064980;28;20277;-62
2023/03/27 04:18:31;;;;;;;17.65;3.22;;;3.20;94.30;;;;;;5049280;28;20044;-62
2023/03/27 04:20:57;;;;;;;9.02;2.08;;;3.20;95.30;;;;;;5062642;28;20052;-62
2023/03/27 04:23:30;;;;;;;15.73;2.25;;;3.20;96.80;;;;;;5057518;28;20072;-62
2023/03/27 04:26:00;;;;;;;10.88;1.83;;;3.20;96.50;;;;;;5069556;28;20048;-62
2023/03/27 04:28:26;;;;;;;;;;;3.20;96.40;;;;;;5070197;28;20037;-62
2023/03/27 04:30:52;;;;;;;7.32;1.67;;;3.10;96.20;;;;;;5068697;28;19924;-62
2023/03/27 04:33:18;;;;;;;9.77;1.48;;;3.10;95.50;;;;;;5049743;28;20044;-62
2023/03/27 04:35:45;;;;;;;11.63;1.83;;;3.00;95.40;;;;;;5064815;28;20128;-62
2023/03/27 04:38:12;;;;;;;10.00;1.50;;;2.90;96.00;;;;;;5058291;28;20049;-62
2023/03/27 04:40:38;;;;;;;11.95;2.90;;;2.80;96.50;;;;;;5040935;28;20064;-62
2023/03/27 04:43:04;;;;;;;11.27;2.70;;;2.90;98.00;;;;;;5053960;28;20419;-62
2023/03/27 04:45:31;;;;;;;20.25;4.30;;;2.80;99.70;;;;;;5051856;28;20552;-62
2023/03/27 04:47:57;;;;;;;19.33;5.07;;;2.70;99.90;;;;;;5053102;28;20060;-62
2023/03/27 04:50:23;;;;;;;22.17;4.57;;;2.70;99.90;;;;;;5064541;28;20173;-62
2023/03/27 04:52:50;;;;;;;21.48;3.80;;;2.70;99.90;;;;;;5061453;28;20047;-62
2023/03/27 04:55:17;;;;;;;20.00;3.63;;;2.70;99.90;;;;;;5068253;28;20085;-62
2023/03/27 04:57:46;;;;;;;22.73;3.65;;;2.80;99.90;;;;;;5051304;28;20091;-62
2023/03/27 05:00:15;;;;;;;15.30;3.22;;;2.80;99.90;;;;;;5067892;28;20045;-60
2023/03/27 05:02:41;;;;;;;19.33;3.50;;;2.80;99.90;;;;;;5049636;28;20494;-60
2023/03/27 05:05:08;;;;;;;29.67;5.63;;;2.80;99.90;;;;;;5067741;28;20054;-59
2023/03/27 05:07:34;;;;;;;19.13;3.72;;;2.90;99.90;;;;;;5067981;28;20075;-59
2023/03/27 05:10:01;;;;;;;12.88;2.08;;;2.90;99.90;;;;;;5068468;28;20502;-60
2023/03/27 05:12:27;;;;;;;10.77;1.63;;;3.00;99.90;;;;;;5067876;28;20044;-60
2023/03/27 05:14:53;;;;;;;5.13;1.10;;;3.20;97.30;;;;;;5033702;28;20502;-60
2023/03/27 05:17:19;;;;;;;5.05;0.73;;;3.40;94.70;;;;;;5068088;28;20040;-60
2023/03/27 05:19:45;;;;;;;8.18;1.00;;;3.50;93.50;;;;;;5061780;28;20043;-60
2023/03/27 05:22:13;;;;;;;9.63;1.17;;;3.60;91.30;;;;;;5067974;28;20077;-60
2023/03/27 05:24:39;;;;;;;9.73;1.30;;;3.90;82.90;;;;;;5067907;28;20095;-60
2023/03/27 05:27:04;;;;;;;6.35;1.50;;;4.10;85.60;;;;;;5068685;28;20072;-60
2023/03/27 05:29:30;;;;;;;8.63;1.38;;;4.30;81.30;;;;;;5067979;28;20123;-60
2023/03/27 05:31:56;;;;;;;12.65;1.85;;;4.50;81.50;;;;;;5068133;28;20049;-60
2023/03/27 05:34:22;;;;;;;13.10;1.70;;;4.70;86.00;;;;;;5050136;28;20044;-60
2023/03/27 05:36:48;;;;;;;10.05;1.90;;;4.70;90.20;;;;;;5037562;28;20074;-60
2023/03/27 05:39:14;;;;;;;8.80;1.67;;;4.50;94.80;;;;;;5050452;28;20123;-60
2023/03/27 05:41:40;;;;;;;7.72;1.10;;;4.30;94.40;;;;;;5067767;28;20511;-60
2023/03/27 05:44:06;;;;;;;7.43;1.23;;;4.00;94.90;;;;;;5050540;28;20052;-60
2023/03/27 05:46:31;;;;;;;4.43;0.90;;;3.90;94.30;;;;;;5059822;28;20391;-60
2023/03/27 05:49:01;;;;;;;1.52;0.35;;;3.70;90.70;;;;;;5068158;28;20105;-60
2023/03/27 05:51:28;;;;;;;6.15;0.60;;;3.60;83.20;;;;;;5048669;28;20354;-60
2023/03/27 05:53:54;;;;;;;8.38;0.95;;;3.60;90.50;;;;;;5068340;28;20487;-60
2023/03/27 05:56:20;;;;;;;6.47;0.85;;;3.70;95.10;;;;;;5066788;28;20059;-60
2023/03/27 05:58:45;;;;;;;2.65;0.70;;;3.70;95.90;;;;;;5050112;28;20044;-60
2023/03/27 06:01:12;;;;;;;5.53;1.02;;;3.80;94.60;;;;;;5067047;28;20051;-60
2023/03/27 06:03:38;;;;;;;4.57;0.50;;;3.80;92.80;;;;;;5066983;28;20384;-60
2023/03/27 06:06:09;;;;;;;3.42;0.57;;;3.90;90.60;;;;;;5067386;28;20055;-60
2023/03/27 06:08:35;;;;;;;;;;;4.00;90.30;;;;;;5049569;28;20127;-60
2023/03/27 06:11:07;;;;;;;9.43;0.90;;;4.10;90.00;;;;;;5067539;28;19934;-60
2023/03/27 06:13:33;;;;;;;11.18;1.40;;;4.20;87.60;;;;;;5057638;28;20405;-60
2023/03/27 06:15:59;;;;;;;6.45;1.00;;;4.30;88.40;;;;;;5067281;28;20053;-62
2023/03/27 06:18:24;;;;;;;7.65;0.85;;;4.50;83.30;;;;;;5049163;28;20106;-62
2023/03/27 06:20:50;;;;;;;9.18;1.15;;;4.80;84.60;;;;;;5065880;28;20573;-63
2023/03/27 06:23:16;;;;;;;4.93;1.05;;;4.90;83.30;;;;;;5025963;28;20503;-62
2023/03/27 06:25:43;;;;;;;12.05;1.23;;;5.10;83.30;;;;;;5060320;28;20414;-62
2023/03/27 06:28:09;;;;;;;12.60;1.42;;;5.30;83.70;;;;;;5053775;28;20072;-62
2023/03/27 06:30:38;;;;;;;14.60;1.42;;;5.30;82.80;;;;;;5064402;28;20410;-62
2023/03/27 06:33:06;;;;;;;10.95;1.75;;;5.20;84.90;;;;;;5066869;28;20393;-62
2023/03/27 06:35:33;;;;;;;8.90;1.70;;;5.00;85.30;;;;;;5064101;28;20040;-62
2023/03/27 06:38:03;;;;;;;12.95;2.13;;;4.90;83.90;;;;;;5056507;28;20049;-62
2023/03/27 06:40:31;;;;;;;11.35;1.80;;;4.90;83.60;;;;;;5058602;28;20063;-62
2023/03/27 06:43:01;;;;;;;11.88;1.85;;;4.70;82.70;;;;;;5056634;28;20487;-62
2023/03/27 06:45:41;;;;;;;7.22;1.38;;;4.60;83.10;;;;;;5060536;28;20104;-62
2023/03/27 06:48:08;;;;;;;12.27;2.10;;;4.40;88.20;;;;;;5054326;28;20063;-62
2023/03/27 06:50:34;;;;;;;11.98;1.60;;;4.30;87.20;;;;;;5046646;28;20628;-62
2023/03/27 06:53:00;;;;;;;8.10;1.70;;;4.30;83.90;;;;;;5054623;28;20087;-62
2023/03/27 06:55:30;;;;;;;13.13;1.60;;;4.30;83.20;;;;;;5065482;28;20155;-62
2023/03/27 06:57:57;;;;;;;;;;;4.30;87.50;;;;;;5067441;28;20040;-62
2023/03/27 07:00:27;;;;;;;12.68;1.52;;;4.30;85.80;;;;;;5065635;28;19946;-63
2023/03/27 07:02:58;;;;;;;15.32;1.63;;;4.30;83.10;;;;;;5066959;28;20379;-62
2023/03/27 07:05:27;;;;;;;13.40;2.22;;;4.60;81.90;;;;;;5065901;28;20044;-63
2023/03/27 07:07:54;;;;;;;9.45;2.28;;;4.90;74.10;;;;;;5066141;28;20047;-62
2023/03/27 07:10:21;;;;;;;10.48;1.98;;;5.30;64.90;;;;;;5065161;28;20409;-62
2023/03/27 07:12:49;;;;;;;9.15;1.83;;;5.50;63.30;;;;;;5066085;28;20078;-63
2023/03/27 07:15:16;;;;;;;17.98;2.13;;;5.70;57.80;;;;;;5067281;28;20056;-62
2023/03/27 07:17:43;;;;;;;8.55;1.35;;;6.00;55.50;;;;;;5048228;28;20388;-62
2023/03/27 07:20:11;;;;;;;7.88;1.77;;;6.30;53.40;;;;;;5066449;28;20048;-62
2023/03/27 07:22:40;;;;;;;16.05;2.55;;;6.50;50.70;;;;;;5046925;28;20190;-63
2023/03/27 07:25:06;;;;;;;6.55;1.30;;;6.50;50.80;;;;;;5059634;28;20079;-62
2023/03/27 07:27:32;;;;;;;7.97;1.52;;;6.40;56.00;;;;;;5063763;28;20040;-62
2023/03/27 07:30:00;;;;;;;8.23;2.40;;;6.30;59.20;;;;;;5061110;28;20101;-62
2023/03/27 07:32:28;;;;;;;13.45;2.17;;;6.40;59.60;;;;;;5018890;28;20075;-62
2023/03/27 07:34:57;;;;;;;13.00;2.28;;;6.60;65.80;;;;;;5055781;28;20040;-62
2023/03/27 07:37:23;;;;;;;15.90;2.90;;;6.50;77.40;;;;;;5066178;28;20076;-62
2023/03/27 07:39:49;;;;;;;16.25;3.05;;;6.10;76.20;;;;;;5044465;28;20045;-62
2023/03/27 07:42:14;;;;;;;16.17;2.40;;;5.70;82.90;;;;;;5065344;28;20041;-63
2023/03/27 07:44:40;;;;;;;19.67;2.40;;;5.60;85.70;;;;;;5066505;28;20094;-62
2023/03/27 07:47:06;;;;;;;15.45;2.45;;;5.70;90.10;;;;;;5065544;28;20099;-62
2023/03/27 07:49:32;;;;;;;11.63;2.20;;;5.50;85.70;;;;;;5066156;28;20431;-62
2023/03/27 07:51:59;;;;;;;7.28;1.80;;;5.30;84.00;;;;;;5065579;28;20483;-62
2023/03/27 07:54:25;;;;;;;9.70;2.15;;;5.00;80.80;;;;;;5047990;28;20039;-62
2023/03/27 07:56:52;;;;;;;8.13;1.60;;;4.90;86.40;;;;;;5056096;28;20084;-63
2023/03/27 07:59:20;;;;;;;11.40;2.28;;;5.10;85.70;;;;;;5062080;28;20032;-62
2023/03/27 08:01:49;;;;;;;10.82;2.00;;;5.30;79.60;;;;;;5065127;28;20037;-62
2023/03/27 08:04:18;;;;;;;11.55;2.45;;;5.50;70.30;;;;;;5046335;28;20076;-62
2023/03/27 08:06:44;;;;;;;14.23;2.38;;;5.70;72.50;;;;;;5031439;28;20094;-62
2023/03/27 08:09:09;;;;;;;10.60;2.40;;;5.80;72.10;;;;;;5029780;28;20040;-62
2023/03/27 08:11:40;;;;;;;11.55;2.08;;;5.90;74.70;;;;;;5065806;28;20044;-63
2023/03/27 08:14:08;;;;;;;;;;;5.90;69.80;;;;;;5066703;28;20036;-62
2023/03/27 08:16:35;;;;;;;10.75;2.05;;;6.00;69.10;;;;;;5065073;28;20003;-62
2023/03/27 08:19:02;;;;;;;10.65;1.95;;;6.10;74.30;;;;;;5041408;28;20091;-62
2023/03/27 08:21:32;;;;;;;9.82;1.50;;;6.20;66.50;;;;;;5045411;28;20486;-62
2023/03/27 08:24:00;;;;;;;10.40;1.85;;;6.30;70.10;;;;;;5041746;28;20484;-62
2023/03/27 08:26:26;;;;;;;5.47;1.48;;;6.50;70.90;;;;;;5061350;28;20490;-62
2023/03/27 08:28:53;;;;;;;6.70;1.65;;;6.50;60.50;;;;;;5067287;28;20080;-62
2023/03/27 08:31:19;;;;;;;10.38;1.25;;;6.40;62.50;;;;;;5068893;28;20041;-62
2023/03/27 08:33:45;;;;;;;8.40;1.50;;;6.30;65.60;;;;;;5047335;28;20052;-62
2023/03/27 08:36:13;;;;;;;12.95;2.58;;;6.30;70.00;;;;;;5058968;28;20510;-63
2023/03/27 08:38:40;;;;;;;9.70;1.95;;;6.30;72.80;;;;;;5044267;28;20110;-62
2023/03/27 08:41:06;;;;;;;7.43;1.73;;;6.20;59.40;;;;;;5043609;28;20080;-63
2023/03/27 08:43:43;;;;;;;10.45;1.73;;;6.00;66.60;;;;;;5049982;28;20113;-62
2023/03/27 08:46:15;;;;;;;11.63;1.85;;;6.10;72.20;;;;;;5051831;28;20447;-62
2023/03/27 08:48:49;;;;;;;9.88;2.08;;;6.20;70.80;;;;;;5067783;28;20091;-62
2023/03/27 08:51:39;;;;;;;12.60;2.88;;;6.50;70.30;;;;;;5069134;28;20053;-62
2023/03/27 08:54:12;;;;;;;8.45;1.58;;;6.60;66.90;;;;;;5058010;28;20048;-62
2023/03/27 08:56:38;;;;;;;5.10;1.10;;;6.60;53.40;;;;;;5068077;28;20388;-63
2023/03/27 08:59:10;;;;;;;3.70;1.20;;;6.50;50.70;;;;;;5034681;28;20048;-62
2023/03/27 09:02:18;;;;;;;11.23;1.75;;;6.70;49.70;;;;;;5040282;28;20075;-62
2023/03/27 09:04:50;;;;;;;10.10;1.35;;;7.00;42.10;;;;;;5062392;28;20119;-62
2023/03/27 09:07:44;;;;;;;7.95;1.25;;;7.20;35.10;;;;;;5063154;28;20486;-62
2023/03/27 09:10:59;;;;;;;5.45;1.10;;;7.20;33.80;;;;;;5062824;28;20087;-62
2023/03/27 09:14:00;;;;;;;7.88;1.42;;;7.40;37.20;;;;;;5032154;28;20060;-63
2023/03/27 09:16:47;;;;;;;7.25;1.60;;;7.70;40.00;;;;;;4982916;28;20081;-62
2023/03/27 09:19:13;;;;;;;6.57;1.42;;;7.10;50.70;;;;;;5062412;28;20502;-62
2023/03/27 09:21:48;;;;;;;12.40;2.17;;;6.40;65.50;;;;;;5067120;28;20050;-62
2023/03/27 09:24:29;;;;;;;10.95;2.00;;;5.90;66.00;;;;;;5059922;28;20032;-63
2023/03/27 09:26:55;;;;;;;5.82;1.27;;;5.70;72.70;;;;;;5061071;28;20495;-62
2023/03/27 09:29:30;;;;;;;11.35;2.30;;;6.00;66.90;;;;;;5055874;28;20041;-63
2023/03/27 09:31:57;;;;;;;10.40;1.38;;;6.30;63.50;;;;;;5060550;28;20042;-63
2023/03/27 09:34:31;;;;;;;6.65;1.95;;;6.60;61.30;;;;;;5050293;28;20032;-63
2023/03/27 09:36:58;;;;;;;8.48;2.05;;;6.90;57.60;;;;;;5062994;28;20040;-63
2023/03/27 09:39:31;;;;;;;9.15;1.98;;;7.20;62.00;;;;;;5049609;28;20131;-62
2023/03/27 09:42:08;;;;;;;11.65;2.15;;;7.10;55.70;;;;;;5050238;28;20134;-62
2023/03/27 09:44:38;;;;;;;7.90;1.63;;;6.80;56.20;;;;;;5061052;28;20480;-62
2023/03/27 09:47:15;;;;;;;9.70;1.63;;;6.30;62.20;;;;;;5043273;28;20036;-63
2023/03/27 09:49:46;;;;;;;10.32;1.90;;;5.90;75.30;;;;;;5051950;28;20057;-63
2023/03/27 09:52:33;;;;;;;9.75;1.70;;;5.70;79.90;;;;;;5060350;28;20078;-63
2023/03/27 09:54:58;;;;;;;6.47;1.10;;;5.70;80.20;;;;;;5063136;28;20044;-63
2023/03/27 09:57:32;;;;;;;10.38;1.50;;;6.20;78.40;;;;;;5067318;28;20040;-63
2023/03/27 10:00:14;;;;;;;5.72;1.20;;;6.60;66.50;;;;;;5067318;28;20064;-64
2023/03/27 10:02:40;;;;;;;7.53;1.80;;;6.50;72.30;;;;;;5066825;28;20410;-63
2023/03/27 10:05:17;;;;;;;12.80;1.45;;;5.80;76.90;;;;;;5067423;28;20045;-63
2023/03/27 10:07:43;;;;;;;12.35;0.98;;;5.10;80.80;;;;;;5067216;28;20119;-63
2023/03/27 10:10:19;;;;;;;9.82;1.65;;;4.90;90.40;;;;;;5067203;28;20592;-63
2023/03/27 10:12:51;;;;;;;4.32;0.80;;;4.70;92.50;;;;;;5049284;28;20122;-63
2023/03/27 10:15:37;;;;;;;5.65;0.90;;;4.90;92.40;;;;;;5067440;28;20048;-63
2023/03/27 10:18:26;;;;;;;8.50;1.15;;;5.40;93.30;;;;;;5046112;28;21435;-63
2023/03/27 10:20:53;;;;;;;5.95;0.88;;;6.00;81.00;;;;;;5059539;28;20052;-63
2023/03/27 10:23:40;;;;;;;8.00;1.38;;;6.40;77.30;;;;;;5061130;28;20048;-63
2023/03/27 10:26:16;;;;;;;10.18;1.58;;;6.80;74.10;;;;;;5045941;28;20196;-63
2023/03/27 10:28:47;;;;;;;9.50;1.30;;;7.10;60.10;;;;;;5066265;28;20033;-63
2023/03/27 10:31:39;;;;;;;8.63;1.52;;;7.30;57.20;;;;;;5061795;28;20048;-63
2023/03/27 10:34:25;;;;;;;11.35;2.10;;;7.50;59.30;;;;;;5042846;28;20501;-63
2023/03/27 10:36:54;;;;;;;11.05;1.70;;;7.60;56.00;;;;;;5041013;28;20063;-63
2023/03/27 10:39:25;;;;;;;11.25;2.33;;;7.40;48.60;;;;;;5060426;28;20040;-63
2023/03/27 10:41:51;;;;;;;5.63;1.42;;;7.20;46.10;;;;;;5040153;28;20063;-63
2023/03/27 10:44:20;;;;;;;12.38;1.88;;;7.00;50.60;;;;;;5050995;28;20546;-63
2023/03/27 10:46:46;;;;;;;13.88;2.63;;;6.80;50.90;;;;;;5052401;28;20036;-63
2023/03/27 10:49:24;;;;;;;7.10;1.30;;;7.00;53.20;;;;;;5030898;28;20404;-62
2023/03/27 10:52:22;;;;;;;10.75;1.75;;;7.20;47.60;;;;;;5049842;28;20049;-62
2023/03/27 10:55:17;;;;;;;11.13;1.73;;;7.10;47.60;;;;;;5059418;28;20041;-63
2023/03/27 10:57:48;;;;;;;11.65;1.85;;;7.00;43.70;;;;;;5022613;28;20088;-63
2023/03/27 11:00:31;;;;;;;6.82;1.80;;;7.30;45.40;;;;;;5057812;28;20565;-63
2023/03/27 11:03:31;;;;;;;11.15;2.08;;;7.50;49.10;;;;;;5066473;28;20482;-62
2023/03/27 11:06:00;;;;;;;10.20;1.77;;;7.50;43.20;;;;;;5056264;28;20131;-63
2023/03/27 11:08:53;;;;;;;7.13;1.65;;;7.50;40.00;;;;;;5041797;28;20049;-62
2023/03/27 11:11:47;;;;;;;8.35;1.45;;;7.20;45.30;;;;;;5055502;28;20525;-62
2023/03/27 11:14:37;;;;;;;8.38;1.65;;;7.30;39.10;;;;;;5056630;28;20380;-63
2023/03/27 11:17:06;;;;;;;11.90;1.70;;;7.30;44.90;;;;;;5058965;28;20056;-62
2023/03/27 11:19:46;;;;;;;7.75;1.33;;;7.30;43.50;;;;;;5063588;28;20028;-63
2023/03/27 11:22:30;;;;;;;11.60;1.80;;;7.50;43.60;;;;;;5054051;28;20051;-62
2023/03/27 11:24:56;;;;;;;11.82;2.10;;;7.60;35.50;;;;;;5063094;28;20131;-63
2023/03/27 11:27:50;;;;;;;10.48;2.28;;;7.50;43.70;;;;;;5066022;28;20119;-63
2023/03/27 11:30:44;;;;;;;10.68;1.75;;;7.20;40.90;;;;;;5030796;28;20062;-62
2023/03/27 11:33:36;;;;;;;6.28;0.75;;;6.60;38.30;;;;;;5064452;28;20279;-62
2023/03/27 11:36:21;;;;;;;3.65;1.23;;;6.80;37.50;;;;;;5052974;28;20051;-62
2023/03/27 11:38:56;;;;;;;3.35;0.88;;;7.10;22.80;;;;;;5062258;28;20044;-62
2023/03/27 11:41:21;;;;;;;8.70;1.80;;;7.40;23.00;;;;;;5044287;28;20040;-62
2023/03/27 11:43:47;;;;;;;14.15;1.00;;;7.50;27.00;;;;;;5019142;28;20143;-62
2023/03/27 11:46:46;;;;;;;12.55;2.58;;;7.60;27.90;;;;;;5047485;28;20102;-62
2023/03/27 11:49:15;;;;;;;7.80;1.50;;;7.70;37.60;;;;;;5065049;28;20142;-62
2023/03/27 11:52:13;;;;;;;8.95;2.20;;;7.60;36.60;;;;;;5066046;28;20041;-63
2023/03/27 11:54:54;;;;;;;12.20;2.10;;;7.50;40.80;;;;;;5049684;28;20041;-63
2023/03/27 11:57:24;;;;;;;9.98;1.83;;;7.30;37.90;;;;;;5061297;28;20506;-60
2023/03/27 11:59:53;;;;;;;;;;;7.20;35.70;;;;;;5053004;28;20044;-60
2023/03/27 12:02:18;;;;;;;11.52;2.35;;;6.90;31.30;;;;;;5069126;28;19928;-60
2023/03/27 12:04:58;;;;;;;6.15;1.80;;;7.00;38.10;;;;;;5069993;28;20052;-60
2023/03/27 12:08:11;;;;;;;10.93;2.33;;;7.10;34.80;;;;;;5069427;28;20033;-60
2023/03/27 12:10:41;;;;;;;9.45;2.60;;;7.00;40.10;;;;;;5061085;28;20360;-60
2023/03/27 12:13:26;;;;;;;14.20;2.20;;;7.30;40.10;;;;;;5069634;28;20139;-60
2023/03/27 12:16:16;;;;;;;9.55;2.10;;;7.30;35.40;;;;;;5058031;28;20078;-60
2023/03/27 12:18:54;;;;;;;5.18;1.35;;;7.20;35.00;;;;;;5039755;28;20131;-60
2023/03/27 12:21:43;;;;;;;11.60;1.85;;;7.30;28.90;;;;;;5043152;28;20072;-60
2023/03/27 12:24:17;;;;;;;9.47;2.20;;;7.40;31.10;;;;;;5069827;28;20056;-60
2023/03/27 12:27:15;;;;;;;7.00;1.48;;;7.50;40.00;;;;;;5056310;28;20434;-62
2023/03/27 12:30:00;;;;;;;8.45;2.03;;;7.30;36.00;;;;;;5046854;28;20125;-63
2023/03/27 12:32:29;;;;;;;6.63;1.60;;;7.40;35.20;;;;;;5061741;28;20045;-62
2023/03/27 12:34:59;;;;;;;12.70;1.92;;;7.60;34.80;;;;;;5063752;28;20119;-63
2023/03/27 12:37:59;;;;;;;7.05;1.45;;;7.60;36.30;;;;;;5067159;28;20063;-61
2023/03/27 12:40:29;;;;;;;9.50;2.10;;;7.70;40.80;;;;;;5063088;28;20041;-61
2023/03/27 12:43:26;;;;;;;9.65;1.35;;;7.40;40.80;;;;;;5067757;28;20048;-61
2023/03/27 12:46:17;;;;;;;7.05;1.98;;;7.40;41.30;;;;;;5066797;28;20459;-61
2023/03/27 12:49:22;;;;;;;4.53;1.20;;;7.50;40.70;;;;;;5062196;28;20060;-61
2023/03/27 12:51:53;;;;;;;7.82;1.58;;;7.30;36.30;;;;;;5054056;28;20127;-61
2023/03/27 12:54:37;;;;;;;11.48;1.83;;;7.20;39.70;;;;;;5068242;28;20710;-60
2023/03/27 12:57:20;;;;;;;13.60;2.03;;;7.40;41.10;;;;;;5050314;28;20044;-61
2023/03/27 12:59:48;;;;;;;8.23;1.83;;;7.80;42.80;;;;;;5062222;28;20490;-61
2023/03/27 13:02:14;;;;;;;7.32;1.98;;;8.00;37.40;;;;;;5067272;28;20041;-61
2023/03/27 13:05:08;;;;;;;12.35;2.53;;;7.70;40.50;;;;;;5050307;28;20556;-61
2023/03/27 13:07:43;;;;;;;11.63;2.50;;;7.50;41.80;;;;;;5064555;28;20049;-61
2023/03/27 13:10:15;;;;;;;9.52;1.92;;;7.50;48.70;;;;;;5050298;28;20483;-61
2023/03/27 13:13:15;;;;;;;13.60;2.42;;;7.50;45.50;;;;;;5066886;28;20086;-61
2023/03/27 13:15:56;;;;;;;14.38;1.67;;;7.30;39.30;;;;;;5056661;28;20048;-60
2023/03/27 13:18:37;;;;;;;10.82;2.45;;;7.00;42.20;;;;;;5056474;28;20055;-61
2023/03/27 13:21:17;;;;;;;7.53;1.85;;;6.80;47.40;;;;;;5042391;28;20499;-61
2023/03/27 13:24:02;;;;;;;18.02;3.08;;;6.80;47.80;;;;;;5068314;28;20670;-61